Latest Weather Observations for Noonamah

IDD60801

Issued at 10:01 am CST Thursday 21 November 2019 (issued every 10 minutes, with the page automatically refreshed every 10 minutes)

About weather observations | Map of weather stations | Latest weather observations for NT | Other Formats
Station Details ID: 014314 Name: NOONAMAH AIRSTRIP Lat: -12.61 Lon: 131.05 Height: 17.5 m
Data from the previous 72 hours. | See also: Recent months at Noonamah
Date/Time
CST
Temp
°C
App
Temp
°C
Dew
Point
°C
Rel
Hum
%
Delta-T
°C
Wind Press
QNH
hPa
Press
MSL
hPa
Rain since
9am
mm
Dir  Spd
km/h
Gust
km/h
Spd
kts
Gust
kts
21/10:00am 31.7 36.4 24.0 63 5.4 WSW 6 11 3 6 1011.0 1010.8 0.0
21/09:30am 31.1 36.2 24.7 68 4.5 SW 6 9 3 5 1011.1 1010.9 0.0
21/09:00am 30.0 35.8 24.6 73 3.8 S 2 7 1 4 1011.1 1010.9 1.0
21/08:30am 28.7 34.2 24.0 76 3.3 SE 2 4 1 2 1011.0 1010.8 1.0
21/08:00am 27.6 31.8 23.2 77 3.0 SE 6 7 3 4 1010.9 1010.7 1.0
21/07:30am 26.2 30.8 23.1 83 2.1 SSW 4 7 2 4 1010.6 1010.4 1.0
21/07:00am 24.8 29.0 23.2 91 1.1 SW 6 11 3 6 1010.2 1010.0 1.0
21/06:30am 23.9 29.2 23.0 95 0.6 CALM 0 0 0 0 1009.6 1009.4 1.0
21/06:00am 23.6 28.7 22.6 94 0.7 CALM 0 0 0 0 1008.9 1008.7 1.0
21/05:30am 23.8 28.9 22.6 93 0.8 CALM 0 0 0 0 1008.8 1008.6 1.0
21/05:00am 23.9 29.0 22.7 93 0.8 CALM 0 0 0 0 1008.7 1008.5 1.0
21/04:30am 23.8 28.9 22.6 93 0.8 CALM 0 0 0 0 1008.3 1008.1 1.0
21/04:00am 24.1 29.2 22.7 92 0.9 CALM 0 0 0 0 1008.2 1008.0 1.0
21/03:30am 24.1 29.1 22.5 91 1.1 CALM 0 0 0 0 1008.1 1007.9 1.0
21/03:00am 24.1 29.1 22.5 91 1.1 CALM 0 0 0 0 1008.0 1007.8 1.0
21/02:30am 24.2 28.9 22.6 91 1.1 NE 2 4 1 2 1008.2 1008.0 1.0
21/02:00am 24.0 29.1 22.6 92 0.9 CALM 0 0 0 0 1008.4 1008.2 1.0
21/01:30am 24.3 29.5 22.9 92 0.9 CALM 0 0 0 0 1008.6 1008.4 1.0
21/01:00am 24.5 29.8 23.1 92 0.9 CALM 0 0 0 0 1008.9 1008.7 1.0
21/12:30am 24.4 29.6 22.8 91 1.1 CALM 0 2 0 1 1009.2 1009.0 1.0
21/12:00am 24.3 29.5 22.9 92 0.9 CALM 0 0 0 0 1009.4 1009.2 1.0
 
Date/Time
CST
Temp
°C
App
Temp
°C
Dew
Point
°C
Rel
Hum
%
Delta-T
°C
Wind Press
QNH
hPa
Press
MSL
hPa
Rain since
9am
mm
Dir  Spd
km/h
Gust
km/h
Spd
kts
Gust
kts
20/11:30pm 24.4 29.6 22.8 91 1.1 CALM 0 0 0 0 1009.5 1009.3 1.0
20/11:00pm 24.4 29.6 22.8 91 1.1 CALM 0 0 0 0 1009.6 1009.4 1.0
20/10:30pm - - - - - CALM 0 0 0 0 1009.4 1009.2 1.0
20/10:00pm - - - - - CALM 0 0 0 0 1009.2 1009.0 1.0
20/09:30pm - - - - - - - - - - 1008.8 1008.6 1.0
20/09:00pm - - - - - - - - - - 1008.5 1008.3 1.0
20/08:30pm - - - - - - - - - - 1008.3 1008.1 1.0
20/08:00pm 25.8 - 22.5 82 2.2 - - - - - 1008.1 1007.9 1.0
20/07:30pm 25.9 - 23.2 85 1.8 - - - - - 1007.8 1007.6 1.0
20/07:00pm 26.4 31.6 22.9 81 2.4 CALM 0 0 0 0 1007.3 1007.1 1.0
20/06:30pm 27.4 31.8 22.1 73 3.6 WNW 2 4 1 2 1007.3 1007.1 1.0
20/06:00pm 27.3 30.7 21.6 71 3.8 W 6 9 3 5 1007.3 1007.1 1.0
20/05:30pm 26.8 29.8 21.3 72 3.7 W 7 13 4 7 1006.9 1006.7 1.0
20/05:00pm 26.4 28.0 21.4 74 3.3 W 15 28 8 15 1007.2 1007.0 1.0
20/04:30pm 26.8 30.7 21.1 71 3.8 NW 2 6 1 3 1006.5 1006.3 1.0
20/04:00pm 27.1 30.6 21.8 73 3.5 N 6 11 3 6 1005.7 1005.5 1.0
20/03:30pm 26.9 30.6 22.3 76 3.1 SW 6 11 3 6 1006.5 1006.3 1.0
20/03:08pm 26.8 27.2 20.6 69 4.1 NNE 19 33 10 18 1006.8 1006.6 0.8
20/03:00pm 32.4 32.3 19.6 46 8.5 N 19 33 10 18 1006.5 1006.3 0.0
20/02:30pm 34.9 38.4 23.6 52 7.9 WNW 11 19 6 10 1006.2 1006.0 0.0
20/02:00pm 35.6 39.1 23.6 50 8.4 NW 11 22 6 12 1006.9 1006.7 0.0
20/01:30pm 35.4 38.2 20.5 41 10.0 N 6 9 3 5 1007.5 1007.3 0.0
20/01:00pm 35.3 38.7 21.6 45 9.3 SW 6 11 3 6 1008.0 1007.8 0.0
20/12:30pm 34.8 37.9 21.5 46 9.1 W 7 13 4 7 1008.6 1008.4 0.0
20/12:00pm 34.5 38.0 21.9 48 8.6 NNW 6 13 3 7 1009.1 1008.9 0.0
20/11:30am 33.2 37.3 22.9 54 7.1 WSW 6 11 3 6 1009.5 1009.3 0.0
20/11:00am 33.2 37.6 23.8 57 6.6 WSW 7 13 4 7 1009.8 1009.6 0.0
20/10:30am 32.7 36.7 23.1 57 6.6 NW 7 15 4 8 1009.9 1009.7 0.0
20/10:00am 32.0 37.0 23.8 62 5.7 W 4 9 2 5 1010.2 1010.0 0.0
20/09:30am 30.9 36.0 24.1 67 4.7 W 4 7 2 4 1010.2 1010.0 0.0
20/09:00am 30.1 35.9 24.5 72 3.9 WSW 2 6 1 3 1010.2 1010.0 11.6
20/08:30am 29.4 35.4 24.3 74 3.6 CALM 0 4 0 2 1010.1 1009.9 11.6
20/08:00am 28.4 34.0 23.5 75 3.4 CALM 0 0 0 0 1009.9 1009.7 11.6
20/07:30am 26.9 32.3 23.2 80 2.5 CALM 0 0 0 0 1009.8 1009.6 11.6
20/07:00am 25.2 30.4 22.9 87 1.6 CALM 0 0 0 0 1009.5 1009.3 11.6
20/06:30am 24.3 29.7 23.3 94 0.7 CALM 0 0 0 0 1009.2 1009.0 11.6
20/06:00am 24.1 29.3 22.9 93 0.8 CALM 0 0 0 0 1008.8 1008.6 11.6
20/05:30am 23.8 28.7 22.4 92 0.9 CALM 0 0 0 0 1008.6 1008.4 11.6
20/05:00am 24.1 29.4 23.1 94 0.7 CALM 0 0 0 0 1008.2 1008.0 11.6
20/04:30am 24.1 29.3 22.9 93 0.8 CALM 0 0 0 0 1008.1 1007.9 11.6
20/04:00am 24.2 29.4 22.8 92 0.9 CALM 0 0 0 0 1008.0 1007.8 11.6
20/03:30am 24.6 29.8 22.8 90 1.2 CALM 0 0 0 0 1008.0 1007.8 11.6
20/03:00am 24.6 29.5 23.0 91 1.1 ESE 2 4 1 2 1008.1 1007.9 11.6
20/02:30am 24.9 30.1 23.5 92 1.0 SE 2 4 1 2 1008.3 1008.1 11.6
20/02:00am 24.9 30.2 23.0 89 1.3 CALM 0 0 0 0 1008.3 1008.1 11.6
20/01:30am 25.2 30.6 23.3 89 1.3 CALM 0 4 0 2 1008.6 1008.4 11.6
20/01:00am 25.3 31.0 23.7 91 1.1 CALM 0 0 0 0 1008.8 1008.6 11.6
20/12:30am 25.6 31.2 23.5 88 1.4 CALM 0 2 0 1 1009.1 1008.9 11.6
20/12:00am 25.6 30.8 22.9 85 1.8 CALM 0 0 0 0 1009.2 1009.0 11.6
 
Date/Time
CST
Temp
°C
App
Temp
°C
Dew
Point
°C
Rel
Hum
%
Delta-T
°C
Wind Press
QNH
hPa
Press
MSL
hPa
Rain since
9am
mm
Dir  Spd
km/h
Gust
km/h
Spd
kts
Gust
kts
19/11:30pm 25.7 31.5 23.9 90 1.2 CALM 0 0 0 0 1009.3 1009.1 11.6
19/11:00pm 26.0 31.4 23.3 85 1.8 CALM 0 0 0 0 1009.4 1009.2 11.6
19/10:30pm 26.6 31.3 22.0 76 3.1 CALM 0 0 0 0 1009.4 1009.2 11.6
19/10:00pm 26.8 31.4 22.4 77 3.0 SSW 2 4 1 2 1009.3 1009.1 11.6
19/09:30pm 27.1 31.0 21.8 73 3.6 SW 4 6 2 3 1009.2 1009.0 11.6
19/09:00pm 27.4 31.7 22.6 75 3.3 WSW 4 7 2 4 1009.0 1008.8 11.6
19/08:30pm 27.6 31.8 23.2 77 3.0 WNW 6 7 3 4 1008.8 1008.6 11.6
19/08:00pm 27.2 31.9 23.4 80 2.6 NW 4 6 2 3 1008.7 1008.5 11.6
19/07:30pm 27.8 32.4 22.5 73 3.6 WNW 2 6 1 3 1008.4 1008.2 11.6
19/07:00pm 28.5 32.1 22.3 69 4.2 SW 7 13 4 7 1008.3 1008.1 11.6
19/06:30pm 29.3 33.3 23.7 72 3.9 W 9 13 5 7 1007.6 1007.4 11.6
19/06:00pm 28.6 33.2 24.8 80 2.7 W 9 15 5 8 1007.5 1007.3 11.6
19/05:30pm 26.7 25.5 20.1 67 4.3 N 26 50 14 27 1006.6 1006.4 10.0
19/05:24pm 26.6 26.3 19.2 64 4.8 ESE 19 50 10 27 1007.1 1006.9 7.2
19/05:16pm 29.8 32.8 22.0 63 5.3 WSW 9 22 5 12 1007.4 1007.2 2.2
19/05:00pm 35.3 36.7 21.9 45 9.2 NW 17 28 9 15 1006.5 1006.3 0.0
19/04:30pm 36.0 37.8 21.1 42 10.1 NW 13 24 7 13 1006.0 1005.8 0.0
19/04:00pm 36.4 37.2 19.8 37 11.1 NW 15 26 8 14 1005.9 1005.7 0.0
19/03:30pm 36.3 37.0 18.8 35 11.6 NNW 13 20 7 11 1005.7 1005.5 0.0
19/03:00pm 37.3 39.1 18.8 33 12.3 W 7 11 4 6 1006.2 1006.0 0.0
19/02:30pm 36.8 37.9 17.9 33 12.3 NNW 9 15 5 8 1006.8 1006.6 0.0
19/02:00pm 37.1 38.8 18.1 32 12.4 SSW 6 13 3 7 1007.2 1007.0 0.0
19/01:30pm 36.0 38.1 18.1 34 11.7 SE 4 9 2 5 1007.8 1007.6 0.0
19/01:00pm 36.3 37.6 18.4 35 11.7 ESE 9 15 5 8 1008.3 1008.1 0.0
19/12:30pm 35.1 36.7 17.8 36 11.2 W 6 11 3 6 1009.1 1008.9 0.0
19/12:00pm 34.7 36.3 18.3 38 10.7 SW 7 11 4 6 1009.6 1009.4 0.0
19/11:30am 34.3 36.1 18.3 38 10.4 SE 6 13 3 7 1009.9 1009.7 0.0
19/11:00am 33.5 35.3 18.8 41 9.6 SE 7 11 4 6 1010.2 1010.0 0.0
19/10:30am 33.0 35.7 19.5 45 8.9 S 4 9 2 5 1010.5 1010.3 0.0
19/10:00am 31.6 34.2 19.2 47 8.1 SSW 4 7 2 4 1010.6 1010.4 0.0
19/09:30am 31.1 34.5 20.1 52 7.3 S 2 6 1 3 1010.7 1010.5 0.0
19/09:00am 30.0 33.3 20.0 55 6.6 S 2 7 1 4 1010.8 1010.6 0.4
19/08:30am 28.0 32.6 21.8 69 4.2 CALM 0 0 0 0 1010.8 1010.6 0.4
19/08:00am 26.5 31.0 21.5 74 3.3 CALM 0 0 0 0 1010.7 1010.5 0.4
19/07:30am 25.8 29.9 21.5 77 2.9 ESE 2 6 1 3 1010.5 1010.3 0.4
19/07:00am 25.5 29.8 21.2 77 2.8 CALM 0 0 0 0 1010.3 1010.1 0.4
19/06:30am 25.1 29.3 21.0 78 2.7 CALM 0 0 0 0 1010.1 1009.9 0.4
19/06:00am 25.1 28.7 21.2 79 2.6 E 4 6 2 3 1009.7 1009.5 0.4
19/05:30am 25.3 29.3 21.4 79 2.6 SSE 2 9 1 5 1009.0 1008.8 0.4
19/05:00am 25.3 29.6 21.2 78 2.7 CALM 0 0 0 0 1008.4 1008.2 0.4
19/04:30am 25.1 28.5 21.0 78 2.7 WSW 4 6 2 3 1008.0 1007.8 0.4
19/04:00am 25.3 29.4 20.8 76 3.0 CALM 0 0 0 0 1008.4 1008.2 0.4
19/03:30am 25.7 28.5 20.5 73 3.4 NNE 6 11 3 6 1009.0 1008.8 0.4
19/03:00am 26.4 27.3 20.0 68 4.2 ENE 15 24 8 13 1009.5 1009.3 0.4
19/02:30am 26.4 30.5 22.9 81 2.4 E 6 9 3 5 1009.6 1009.4 0.4
19/02:00am 26.2 30.4 22.5 80 2.5 ESE 4 6 2 3 1009.4 1009.2 0.4
19/01:30am 26.1 31.2 22.6 81 2.4 CALM 0 0 0 0 1009.3 1009.1 0.4
19/01:00am 26.6 31.2 22.4 78 2.8 E 2 4 1 2 1009.8 1009.6 0.4
19/12:30am 26.8 31.4 22.4 77 3.0 ESE 2 4 1 2 1010.0 1009.8 0.4
19/12:00am 26.9 31.0 22.3 76 3.1 ESE 4 4 2 2 1010.2 1010.0 0.4
 
Date/Time
CST
Temp
°C
App
Temp
°C
Dew
Point
°C
Rel
Hum
%
Delta-T
°C
Wind Press
QNH
hPa
Press
MSL
hPa
Rain since
9am
mm
Dir  Spd
km/h
Gust
km/h
Spd
kts
Gust
kts
18/11:30pm 26.7 31.2 22.3 77 3.0 S 2 6 1 3 1010.2 1010.0 0.4
18/11:00pm 26.9 32.4 23.4 81 2.4 CALM 0 0 0 0 1010.1 1009.9 0.4
18/10:30pm 27.0 32.1 22.6 77 3.0 CALM 0 0 0 0 1009.9 1009.7 0.4
18/10:00pm 27.7 32.3 21.7 70 4.0 CALM 0 4 0 2 1009.8 1009.6 0.4
18/09:30pm 28.1 32.4 21.9 69 4.2 W 2 6 1 3 1009.7 1009.5 0.4
18/09:00pm 28.5 32.4 22.5 70 4.1 SW 6 7 3 4 1009.6 1009.4 0.4
18/08:30pm 28.4 33.5 23.3 74 3.5 WNW 2 4 1 2 1009.2 1009.0 0.4
18/08:00pm 29.4 34.9 23.4 70 4.1 CALM 0 0 0 0 1009.2 1009.0 0.4
18/07:30pm 29.9 34.8 23.1 67 4.7 WNW 2 4 1 2 1009.0 1008.8 0.4
18/07:00pm 30.6 35.1 23.0 64 5.2 NW 4 6 2 3 1008.6 1008.4 0.4
18/06:30pm 31.1 34.1 22.7 61 5.8 WNW 11 19 6 10 1008.4 1008.2 0.4
18/06:00pm 32.7 36.0 22.5 55 7.0 NW 9 17 5 9 1008.2 1008.0 0.4
18/05:30pm 32.4 35.1 22.2 55 7.0 NW 11 24 6 13 1007.9 1007.7 0.4
18/05:00pm 30.4 34.0 22.3 62 5.5 NW 7 13 4 7 1007.5 1007.3 0.4
18/04:30pm 29.8 33.5 22.5 65 5.0 NNE 7 11 4 6 1007.1 1006.9 0.4
18/04:00pm 28.9 31.8 21.1 62 5.2 NNE 7 11 4 6 1007.4 1007.2 0.4
18/03:30pm 28.6 30.3 22.3 68 4.3 N 17 26 9 14 1008.1 1007.9 0.0
18/03:29pm 29.4 30.7 22.4 66 4.8 N 19 32 10 17 1008.0 1007.8 0.0
18/03:00pm 35.3 39.1 21.6 45 9.4 W 4 9 2 5 1007.7 1007.5 0.0
18/02:30pm 34.5 36.5 21.5 46 8.8 NNW 13 22 7 12 1008.1 1007.9 0.0
18/02:00pm 35.3 38.1 20.8 42 9.8 W 7 13 4 7 1008.4 1008.2 0.0
18/01:30pm 35.2 38.3 20.3 41 10.0 WSW 4 13 2 7 1009.2 1009.0 0.0
18/01:00pm 35.5 38.4 21.0 42 9.8 WSW 7 15 4 8 1009.7 1009.5 0.0
18/12:30pm 34.4 37.7 20.7 44 9.2 SE 4 11 2 6 1010.2 1010.0 0.0
18/12:00pm 33.8 37.1 21.9 49 8.1 W 7 15 4 8 1010.8 1010.6 0.0
18/11:30am 33.5 37.5 22.0 51 7.8 NW 4 11 2 6 1011.1 1010.9 0.0
18/11:00am 33.1 36.4 21.9 51 7.6 WSW 7 11 4 6 1011.8 1011.6 0.0
18/10:30am 32.8 37.3 22.3 54 7.2 SE 2 6 1 3 1012.3 1012.1 0.0

Other formats

Comma delimited format used in spreadsheet applications
http://www.bom.gov.au/fwo/IDD60801/IDD60801.94105.axf

JavaScript Object Notation format (JSON) in row-major order
http://www.bom.gov.au/fwo/IDD60801/IDD60801.94105.json

Data quality

Most of these data are generated automatically and are frequently updated. Quality checks on data are not normally performed. It is possible for incorrect values to appear. Refer to information at About Latest Weather Observations and please check the disclaimer before using these data.